Time;durP1;ratioP1;P1;durP2;ratioP2;P2;SDS_P1;SDS_P2;PMS_P1;PMS_P2;Temp;Humidity;BMP_temperature;BMP_pressure;BME280_temperature;BME280_humidity;BME280_pressure;Samples;Min_cycle;Max_cycle;Signal;HPM_P1;HPM_P2
2022/01/15 00:01:23;;;;;;;111.77;45.57;;;5.90;99.90;;;;;;7352496;19;113162;-83
2022/01/15 00:03:50;;;;;;;114.33;48.10;;;5.90;99.90;;;;;;7348097;19;113489;-83
2022/01/15 00:06:17;;;;;;;119.23;49.03;;;5.90;99.90;;;;;;7350584;19;115084;-83
2022/01/15 00:08:44;;;;;;;116.57;49.03;;;5.90;99.90;;;;;;7349631;19;112520;-83
2022/01/15 00:11:11;;;;;;;120.27;50.60;;;5.90;99.90;;;;;;7348927;19;114874;-83
2022/01/15 00:13:41;;;;;;;123.40;49.43;;;5.90;99.90;;;;;;7353018;19;112332;-83
2022/01/15 00:16:24;;;;;;;117.10;48.07;;;5.90;99.90;;;;;;7354705;19;113240;-83
2022/01/15 00:19:07;;;;;;;115.97;48.30;;;5.90;99.90;;;;;;7350467;19;111940;-83
2022/01/15 00:21:34;;;;;;;122.47;49.23;;;6.00;99.90;;;;;;7352654;19;112913;-82
2022/01/15 00:24:01;;;;;;;119.70;46.20;;;6.00;99.90;;;;;;7349174;19;112175;-84
2022/01/15 00:26:28;;;;;;;117.83;49.50;;;5.90;99.90;;;;;;7354321;19;112014;-83
2022/01/15 00:28:55;;;;;;;120.93;48.13;;;5.90;99.90;;;;;;7345666;19;112324;-84
2022/01/15 00:31:22;;;;;;;;;;;5.90;99.90;;;;;;7350708;19;112457;-83
2022/01/15 00:33:49;;;;;;;118.53;47.72;;;5.90;99.90;;;;;;7354989;19;110669;-83
2022/01/15 00:36:17;;;;;;;119.67;48.37;;;5.90;99.90;;;;;;7351192;19;112657;-84
2022/01/15 00:38:45;;;;;;;120.07;48.33;;;5.90;99.90;;;;;;7355979;19;112273;-83
2022/01/15 00:41:12;;;;;;;119.47;49.30;;;5.90;99.90;;;;;;7352603;19;113290;-83
2022/01/15 00:43:40;;;;;;;118.60;48.80;;;5.90;99.90;;;;;;7350735;19;112782;-84
2022/01/15 00:46:07;;;;;;;114.90;48.97;;;6.00;99.90;;;;;;7340244;19;114555;-83
2022/01/15 00:48:35;;;;;;;108.73;47.77;;;5.80;99.90;;;;;;7343201;19;113136;-83
2022/01/15 00:51:02;;;;;;;120.20;48.87;;;5.80;99.90;;;;;;7341217;19;111889;-83
2022/01/15 00:53:29;;;;;;;123.23;50.97;;;5.80;99.90;;;;;;7343851;19;112298;-83
2022/01/15 00:55:56;;;;;;;114.87;47.60;;;5.80;99.90;;;;;;7343569;19;112719;-84
2022/01/15 00:58:23;;;;;;;119.27;49.37;;;5.90;99.90;;;;;;7349885;19;115336;-83
2022/01/15 01:00:50;;;;;;;119.63;50.13;;;5.90;99.90;;;;;;7343248;19;112512;-82
2022/01/15 01:03:17;;;;;;;115.93;48.37;;;5.90;99.90;;;;;;7343763;19;110746;-83
2022/01/15 01:05:44;;;;;;;121.67;49.53;;;5.90;99.90;;;;;;7342382;19;112095;-83
2022/01/15 01:08:11;;;;;;;121.57;50.47;;;5.90;99.90;;;;;;7341021;19;112648;-83
2022/01/15 01:10:55;;;;;;;119.77;49.17;;;5.90;99.90;;;;;;7344253;19;112932;-84
2022/01/15 01:22:29;;;;;;;108.07;46.80;;;5.70;99.90;;;;;;7346159;19;112460;-84
2022/01/15 01:24:30;;;;;;;107.00;50.30;;;5.80;99.90;;;;;;7343981;19;112540;-84
2022/01/15 01:27:13;;;;;;;116.17;52.07;;;5.70;99.90;;;;;;7341993;19;112112;-83
2022/01/15 01:32:32;;;;;;;119.87;51.67;;;5.70;99.90;;;;;;7343730;19;111179;-83
2022/01/15 01:35:07;;;;;;;111.63;49.43;;;5.80;99.90;;;;;;7340078;19;112572;-83
2022/01/15 01:37:39;;;;;;;112.57;50.90;;;5.80;99.90;;;;;;7341601;19;115060;-83
2022/01/15 01:40:19;;;;;;;110.07;51.53;;;5.80;99.90;;;;;;7341380;19;114700;-84
2022/01/15 01:43:03;;;;;;;106.07;50.83;;;5.80;99.90;;;;;;7341574;19;112578;-84
2022/01/15 01:45:30;;;;;;;117.60;51.30;;;5.70;99.90;;;;;;7345781;19;112815;-83
2022/01/15 01:47:57;;;;;;;114.10;51.27;;;5.70;99.90;;;;;;7341509;19;117110;-84
2022/01/15 01:50:27;;;;;;;120.10;53.13;;;5.70;99.90;;;;;;7339407;19;114386;-83
2022/01/15 01:52:58;;;;;;;126.70;52.07;;;5.60;99.90;;;;;;7344717;19;111801;-84
2022/01/15 01:55:27;;;;;;;115.13;51.80;;;5.70;99.90;;;;;;7339708;19;114993;-84
2022/01/15 01:57:56;;;;;;;120.87;51.33;;;5.70;99.90;;;;;;7338898;19;114661;-84
2022/01/15 02:00:24;;;;;;;120.30;52.50;;;5.70;99.90;;;;;;7340533;19;111479;-83
2022/01/15 02:02:53;;;;;;;119.90;52.37;;;5.70;99.90;;;;;;7341082;19;112435;-84
2022/01/15 02:05:21;;;;;;;120.80;53.43;;;5.70;99.90;;;;;;7338416;19;115689;-84
2022/01/15 02:07:49;;;;;;;123.10;52.03;;;5.70;99.90;;;;;;7344842;19;112541;-84
2022/01/15 02:10:19;;;;;;;123.60;51.27;;;5.70;99.90;;;;;;7341626;19;113394;-84
2022/01/15 02:12:48;;;;;;;126.33;54.27;;;5.70;99.90;;;;;;7339481;19;112401;-83
2022/01/15 02:15:18;;;;;;;127.10;52.40;;;5.70;99.90;;;;;;7341137;19;112492;-84
2022/01/15 02:17:47;;;;;;;140.63;53.70;;;5.70;99.90;;;;;;7339872;19;115683;-84
2022/01/15 02:25:54;;;;;;;132.23;51.60;;;5.70;99.90;;;;;;7338917;19;111348;-83
2022/01/15 02:28:25;;;;;;;134.43;50.23;;;5.70;99.90;;;;;;7342182;19;112089;-84
2022/01/15 02:30:57;;;;;;;142.43;50.57;;;5.70;99.90;;;;;;7343618;19;113490;-84
2022/01/15 02:33:25;;;;;;;147.47;48.47;;;5.70;99.90;;;;;;7340568;19;112082;-84
2022/01/15 02:35:52;;;;;;;141.70;49.50;;;5.70;99.90;;;;;;7339554;19;113483;-84
2022/01/15 02:38:20;;;;;;;141.57;49.67;;;5.70;99.90;;;;;;7339161;19;113469;-84
2022/01/15 02:40:47;;;;;;;140.17;48.93;;;5.60;99.90;;;;;;7341104;19;110601;-84
2022/01/15 02:43:19;;;;;;;145.43;49.07;;;5.60;99.90;;;;;;7338208;19;114371;-83
2022/01/15 02:45:55;;;;;;;159.50;50.00;;;5.60;99.90;;;;;;7339588;19;112906;-83
2022/01/15 02:48:25;;;;;;;144.97;49.63;;;5.60;99.90;;;;;;7337995;19;110577;-83
2022/01/15 02:50:53;;;;;;;161.97;51.00;;;5.60;99.90;;;;;;7338029;19;112034;-84
2022/01/15 02:53:21;;;;;;;152.33;50.70;;;5.60;99.90;;;;;;7345555;19;112962;-83
2022/01/15 02:55:53;;;;;;;150.97;50.90;;;5.60;99.90;;;;;;7339760;19;113264;-84
2022/01/15 02:58:23;;;;;;;157.70;51.23;;;5.60;99.90;;;;;;7342414;19;112544;-83
2022/01/15 03:00:51;;;;;;;160.33;51.80;;;5.60;99.90;;;;;;7337351;19;110698;-83
2022/01/15 03:03:19;;;;;;;147.50;50.40;;;5.60;99.90;;;;;;7339273;19;112024;-83
2022/01/15 03:05:46;;;;;;;156.73;50.97;;;5.60;99.90;;;;;;7339036;19;115096;-83
2022/01/15 03:08:13;;;;;;;150.40;51.80;;;5.60;99.90;;;;;;7337008;19;112301;-84
2022/01/15 03:10:40;;;;;;;148.03;51.73;;;5.60;99.90;;;;;;7337522;19;112460;-83
2022/01/15 03:13:11;;;;;;;156.20;52.03;;;5.60;99.90;;;;;;7341424;19;111709;-83
2022/01/15 03:15:40;;;;;;;150.23;50.70;;;5.60;99.90;;;;;;7340325;19;114862;-83
2022/01/15 03:18:07;;;;;;;158.10;51.83;;;5.50;99.90;;;;;;7336469;19;112700;-83
2022/01/15 03:20:34;;;;;;;150.33;53.07;;;5.50;99.90;;;;;;7340181;19;111965;-83
2022/01/15 03:23:02;;;;;;;148.53;51.90;;;5.50;99.90;;;;;;7338734;19;111447;-83
2022/01/15 03:25:29;;;;;;;150.10;52.10;;;5.50;99.90;;;;;;7338686;19;112444;-85
2022/01/15 03:27:56;;;;;;;149.23;52.17;;;5.40;99.90;;;;;;7337278;19;113967;-84
2022/01/15 03:30:23;;;;;;;143.33;51.13;;;5.40;99.90;;;;;;7338477;19;112329;-84
2022/01/15 03:32:50;;;;;;;148.93;52.53;;;5.40;99.90;;;;;;7337867;19;111664;-83
2022/01/15 03:35:18;;;;;;;152.33;52.00;;;5.40;99.90;;;;;;7341873;19;112065;-84
2022/01/15 03:37:45;;;;;;;149.10;51.40;;;5.40;99.90;;;;;;7339763;19;112656;-83
2022/01/15 03:40:15;;;;;;;139.07;51.57;;;5.30;99.90;;;;;;7337676;19;114728;-83
2022/01/15 03:42:44;;;;;;;140.20;50.30;;;5.30;99.90;;;;;;7337538;19;114862;-83
2022/01/15 03:45:13;;;;;;;143.03;51.83;;;5.40;99.90;;;;;;7338157;19;112485;-84
2022/01/15 03:47:41;;;;;;;141.83;50.93;;;5.40;99.90;;;;;;7336700;19;111706;-83
2022/01/15 03:50:08;;;;;;;142.00;52.37;;;5.40;99.90;;;;;;7336407;19;112251;-83
2022/01/15 03:52:36;;;;;;;133.30;49.10;;;5.50;99.90;;;;;;7335610;19;112922;-84
2022/01/15 03:55:04;;;;;;;131.23;50.80;;;5.50;99.90;;;;;;7337452;19;112234;-84
2022/01/15 03:57:31;;;;;;;132.23;50.10;;;5.50;99.90;;;;;;7342193;19;115034;-83
2022/01/15 04:00:00;;;;;;;140.80;51.53;;;5.50;99.90;;;;;;7337094;19;114467;-84
2022/01/15 04:02:27;;;;;;;134.43;51.63;;;5.50;99.90;;;;;;7339783;19;115301;-84
2022/01/15 04:04:55;;;;;;;140.40;51.20;;;5.50;99.90;;;;;;7334615;19;112326;-83
2022/01/15 04:07:22;;;;;;;141.20;51.97;;;5.50;99.90;;;;;;7339081;19;112197;-84
2022/01/15 04:09:49;;;;;;;143.37;50.63;;;5.50;99.90;;;;;;7334766;19;114189;-82
2022/01/15 04:12:15;;;;;;;;;;;5.40;99.90;;;;;;7338417;19;111158;-83
2022/01/15 04:14:42;;;;;;;136.03;49.73;;;5.40;99.90;;;;;;7340117;19;112178;-83
2022/01/15 04:17:10;;;;;;;139.13;50.57;;;5.40;99.90;;;;;;7337650;19;110748;-84
2022/01/15 04:19:40;;;;;;;131.60;49.67;;;5.40;99.90;;;;;;7343426;19;112575;-84
2022/01/15 04:22:07;;;;;;;133.27;50.37;;;5.40;99.90;;;;;;7344556;19;112085;-84
2022/01/15 04:24:34;;;;;;;127.00;49.20;;;5.40;99.90;;;;;;7345613;19;113122;-83
2022/01/15 04:27:02;;;;;;;129.27;49.30;;;5.40;99.90;;;;;;7341772;19;114624;-84
2022/01/15 04:29:31;;;;;;;131.83;50.90;;;5.40;99.90;;;;;;7343245;19;114993;-84
2022/01/15 04:31:58;;;;;;;133.47;50.47;;;5.40;99.90;;;;;;7342781;19;112525;-84
2022/01/15 04:34:27;;;;;;;127.07;47.17;;;5.50;99.90;;;;;;7343440;19;112168;-84
2022/01/15 04:37:04;;;;;;;126.43;48.20;;;5.50;99.90;;;;;;7345280;19;112610;-84
2022/01/15 04:39:31;;;;;;;;;;;5.40;99.90;;;;;;7342578;19;112958;-83
2022/01/15 04:41:58;;;;;;;118.13;43.13;;;5.30;99.90;;;;;;7354845;19;115285;-83
2022/01/15 04:44:25;;;;;;;127.87;45.33;;;5.30;99.90;;;;;;7343259;19;111444;-83
2022/01/15 04:46:52;;;;;;;120.53;45.70;;;5.30;99.90;;;;;;7345119;19;112131;-84
2022/01/15 04:49:20;;;;;;;131.10;44.57;;;5.30;99.90;;;;;;7344808;19;114580;-84
2022/01/15 04:51:47;;;;;;;137.10;48.33;;;5.30;99.90;;;;;;7341356;19;115486;-84
2022/01/15 04:54:14;;;;;;;137.83;44.67;;;5.30;99.90;;;;;;7344026;19;112209;-84
2022/01/15 04:56:41;;;;;;;142.80;48.43;;;5.30;99.90;;;;;;7341094;19;114800;-84
2022/01/15 04:59:10;;;;;;;140.07;47.60;;;5.30;99.90;;;;;;7342186;19;114828;-84
2022/01/15 05:01:37;;;;;;;133.00;45.40;;;5.30;99.90;;;;;;7342724;19;113970;-83
2022/01/15 05:04:04;;;;;;;143.47;46.00;;;5.30;99.90;;;;;;7348322;19;113312;-84
2022/01/15 05:06:31;;;;;;;151.03;48.80;;;5.30;99.90;;;;;;7344198;19;112915;-83
2022/01/15 05:09:05;;;;;;;136.83;46.83;;;5.30;99.90;;;;;;7341357;19;111351;-84
2022/01/15 05:14:38;;;;;;;154.27;47.83;;;5.30;99.90;;;;;;7337632;19;114594;-84
2022/01/15 05:17:05;;;;;;;148.07;46.50;;;5.20;99.90;;;;;;7340836;19;114330;-84
2022/01/15 05:19:33;;;;;;;155.60;47.13;;;5.20;99.90;;;;;;7343916;19;115346;-83
2022/01/15 05:22:00;;;;;;;165.50;47.13;;;5.20;99.90;;;;;;7340241;19;115047;-84
2022/01/15 05:24:30;;;;;;;143.20;44.77;;;5.20;99.90;;;;;;7348537;19;113252;-83
2022/01/15 05:26:57;;;;;;;146.53;45.43;;;5.20;99.90;;;;;;7342967;19;111846;-83
2022/01/15 05:29:24;;;;;;;150.80;44.87;;;5.20;99.90;;;;;;7341051;19;112543;-83
2022/01/15 05:31:51;;;;;;;131.00;42.33;;;5.10;99.90;;;;;;7340934;19;115536;-83
2022/01/15 05:34:18;;;;;;;141.17;43.23;;;5.20;99.90;;;;;;7340265;19;115630;-84
2022/01/15 05:36:46;;;;;;;138.30;42.47;;;5.20;99.90;;;;;;7342664;19;110179;-84
2022/01/15 05:39:13;;;;;;;137.43;42.20;;;5.20;99.90;;;;;;7338817;19;112671;-84
2022/01/15 05:41:42;;;;;;;143.13;42.60;;;5.20;99.90;;;;;;7341807;19;113985;-83
2022/01/15 05:44:09;;;;;;;140.43;40.23;;;5.20;99.90;;;;;;7340668;19;112564;-83
2022/01/15 05:46:36;;;;;;;126.03;39.87;;;5.20;99.90;;;;;;7346518;19;112361;-83
2022/01/15 05:49:04;;;;;;;113.10;35.67;;;5.20;99.90;;;;;;7343481;19;112594;-85
2022/01/15 05:51:31;;;;;;;112.77;34.23;;;5.30;99.90;;;;;;7339549;19;114868;-84
2022/01/15 05:54:00;;;;;;;114.77;33.97;;;5.20;99.90;;;;;;7342070;19;112102;-84
2022/01/15 05:56:28;;;;;;;108.90;34.00;;;5.20;99.90;;;;;;7339590;19;111812;-83
2022/01/15 05:58:55;;;;;;;116.17;34.53;;;5.10;99.90;;;;;;7343483;19;114955;-83
2022/01/15 06:01:22;;;;;;;110.20;33.50;;;5.00;99.90;;;;;;7339620;19;114149;-84
2022/01/15 06:03:50;;;;;;;108.07;32.63;;;5.10;99.90;;;;;;7341275;19;112427;-83
2022/01/15 06:06:17;;;;;;;108.77;31.83;;;5.10;99.90;;;;;;7339290;19;113285;-84
2022/01/15 06:08:44;;;;;;;113.20;32.77;;;5.10;99.90;;;;;;7347143;19;114631;-84
2022/01/15 06:11:17;;;;;;;110.77;33.67;;;5.00;99.90;;;;;;7339381;19;114553;-83
2022/01/15 06:13:45;;;;;;;108.57;32.63;;;5.00;99.90;;;;;;7337567;19;112421;-84
2022/01/15 06:16:12;;;;;;;106.83;33.37;;;5.00;99.90;;;;;;7341247;19;111864;-83
2022/01/15 06:18:39;;;;;;;113.93;34.23;;;5.00;99.90;;;;;;7337542;19;114366;-83
2022/01/15 06:21:07;;;;;;;118.50;33.90;;;5.10;99.90;;;;;;7340819;19;112003;-83
2022/01/15 06:23:34;;;;;;;111.43;35.10;;;5.00;99.90;;;;;;7337959;19;112758;-83
2022/01/15 06:26:02;;;;;;;118.20;35.67;;;5.10;99.90;;;;;;7344176;19;112824;-83
2022/01/15 06:28:29;;;;;;;114.40;34.30;;;5.10;99.90;;;;;;7337548;19;110426;-84
2022/01/15 06:30:56;;;;;;;117.93;35.57;;;5.10;99.90;;;;;;7343804;19;115275;-84
2022/01/15 06:33:23;;;;;;;112.03;33.67;;;5.10;99.90;;;;;;7338010;19;116210;-84
2022/01/15 06:35:50;;;;;;;106.07;32.40;;;5.00;99.90;;;;;;7335103;19;114904;-84
2022/01/15 06:38:17;;;;;;;106.13;33.83;;;5.00;99.90;;;;;;7338966;19;113827;-83
2022/01/15 06:40:44;;;;;;;115.33;33.03;;;5.00;99.90;;;;;;7336117;19;111932;-84
2022/01/15 06:43:11;;;;;;;121.00;33.70;;;5.00;99.90;;;;;;7337928;19;112943;-84
2022/01/15 06:45:38;;;;;;;131.80;33.40;;;5.00;99.90;;;;;;7337941;19;111646;-84
2022/01/15 06:48:05;;;;;;;131.50;33.90;;;5.00;99.90;;;;;;7340214;19;114753;-84
2022/01/15 06:50:32;;;;;;;121.23;36.20;;;5.00;99.90;;;;;;7335933;19;114019;-83
2022/01/15 06:52:59;;;;;;;119.53;34.30;;;5.00;99.90;;;;;;7345095;19;113307;-84
2022/01/15 06:55:26;;;;;;;;;;;5.00;99.90;;;;;;7339727;19;112658;-84
2022/01/15 06:57:53;;;;;;;127.03;34.70;;;5.00;99.90;;;;;;7343126;19;111203;-85
2022/01/15 07:00:20;;;;;;;127.73;34.77;;;5.00;99.90;;;;;;7340138;19;114823;-85
2022/01/15 07:02:47;;;;;;;135.87;37.43;;;5.00;99.90;;;;;;7338147;19;114933;-84
2022/01/15 07:05:14;;;;;;;151.00;37.57;;;5.00;99.90;;;;;;7339294;19;111992;-84
2022/01/15 07:07:45;;;;;;;138.37;35.73;;;5.00;99.90;;;;;;7336528;19;112074;-84
2022/01/15 07:10:14;;;;;;;159.13;38.53;;;5.00;99.90;;;;;;7337719;19;115343;-84
2022/01/15 07:12:41;;;;;;;172.90;40.07;;;4.90;99.90;;;;;;7344154;19;112751;-83
2022/01/15 07:15:09;;;;;;;141.43;38.03;;;4.90;99.90;;;;;;7337069;19;112281;-84
2022/01/15 07:17:46;;;;;;;149.93;38.40;;;4.80;99.90;;;;;;7338611;19;114241;-84
2022/01/15 07:20:15;;;;;;;168.93;37.97;;;4.80;99.90;;;;;;7335678;19;114708;-84
2022/01/15 07:22:43;;;;;;;148.27;37.03;;;4.80;99.90;;;;;;7339756;19;111352;-84
2022/01/15 07:25:11;;;;;;;138.33;37.90;;;4.80;99.90;;;;;;7336122;19;115972;-84
2022/01/15 07:27:39;;;;;;;176.00;40.50;;;4.80;99.90;;;;;;7338845;19;112715;-84
2022/01/15 07:30:08;;;;;;;164.07;37.60;;;4.80;99.90;;;;;;7337923;19;114859;-84
2022/01/15 07:32:35;;;;;;;159.43;37.73;;;4.70;99.90;;;;;;7335153;19;112806;-84
2022/01/15 07:35:03;;;;;;;156.67;38.97;;;4.70;99.90;;;;;;7344728;19;113731;-83
2022/01/15 07:37:31;;;;;;;156.43;39.30;;;4.70;99.90;;;;;;7335806;19;112917;-84
2022/01/15 07:39:59;;;;;;;164.63;39.27;;;4.60;99.90;;;;;;7338368;19;112120;-83
2022/01/15 07:42:29;;;;;;;177.37;39.17;;;4.60;99.90;;;;;;7335687;19;112857;-83
2022/01/15 07:44:55;;;;;;;171.10;39.07;;;4.70;99.90;;;;;;7337889;19;115819;-84
2022/01/15 07:47:22;;;;;;;138.03;37.53;;;4.70;99.90;;;;;;7336444;19;115198;-83
2022/01/15 07:49:49;;;;;;;145.60;38.23;;;4.60;99.90;;;;;;7336173;19;113157;-83
2022/01/15 07:52:19;;;;;;;140.20;37.07;;;4.70;99.90;;;;;;7337854;19;112238;-83
2022/01/15 07:54:46;;;;;;;149.33;36.23;;;4.70;99.90;;;;;;7338981;19;111883;-84
2022/01/15 07:57:18;;;;;;;163.03;37.03;;;4.80;99.90;;;;;;7351871;19;112735;-84
2022/01/15 07:59:45;;;;;;;134.87;35.50;;;4.80;99.90;;;;;;7341444;19;115371;-84
2022/01/15 08:02:12;;;;;;;147.23;35.53;;;4.80;99.90;;;;;;7345902;19;111299;-84
2022/01/15 08:04:40;;;;;;;144.43;37.30;;;4.80;99.90;;;;;;7343124;19;112463;-84
2022/01/15 08:07:09;;;;;;;131.83;34.90;;;4.80;99.90;;;;;;7344440;19;112203;-83
2022/01/15 08:09:37;;;;;;;136.87;34.63;;;4.80;99.90;;;;;;7340579;19;116214;-84
2022/01/15 08:12:05;;;;;;;133.40;33.77;;;4.90;99.90;;;;;;7342612;19;112888;-83
2022/01/15 08:14:32;;;;;;;137.33;33.87;;;4.90;99.90;;;;;;7345256;19;110573;-84
2022/01/15 08:16:59;;;;;;;141.13;32.33;;;4.90;99.90;;;;;;7342579;19;111212;-84
2022/01/15 08:19:26;;;;;;;124.87;31.50;;;4.90;99.90;;;;;;7350066;19;115851;-84
2022/01/15 08:21:53;;;;;;;137.10;32.73;;;4.90;99.90;;;;;;7341444;19;110865;-83
2022/01/15 08:24:20;;;;;;;129.20;31.37;;;4.90;99.90;;;;;;7344238;19;112875;-84
2022/01/15 08:26:47;;;;;;;107.70;29.30;;;4.90;99.90;;;;;;7342287;19;111173;-83
2022/01/15 08:29:14;;;;;;;106.97;30.30;;;4.90;99.90;;;;;;7342457;19;111428;-84
2022/01/15 08:31:41;;;;;;;131.80;31.27;;;4.90;99.90;;;;;;7345289;19;111016;-84
2022/01/15 08:34:09;;;;;;;131.53;31.90;;;4.90;99.90;;;;;;7340890;19;114759;-83
2022/01/15 08:36:37;;;;;;;135.03;32.13;;;4.90;99.90;;;;;;7343442;19;112078;-83
2022/01/15 08:39:06;;;;;;;147.53;32.17;;;4.80;99.90;;;;;;7340557;19;112935;-83
2022/01/15 08:41:33;;;;;;;130.63;32.07;;;4.80;99.90;;;;;;7345661;19;112268;-83
2022/01/15 08:44:00;;;;;;;141.43;30.97;;;4.80;99.90;;;;;;7338547;19;112991;-83
2022/01/15 08:46:27;;;;;;;140.67;30.77;;;4.80;99.90;;;;;;7338918;19;114421;-83
2022/01/15 08:48:54;;;;;;;126.10;28.93;;;4.70;99.90;;;;;;7342802;19;112077;-83
2022/01/15 08:51:21;;;;;;;116.73;27.60;;;4.70;99.90;;;;;;7338880;19;112452;-83
2022/01/15 08:53:48;;;;;;;108.33;26.77;;;4.70;99.90;;;;;;7342662;19;111652;-83
2022/01/15 08:56:17;;;;;;;116.40;28.23;;;4.70;99.90;;;;;;7341114;19;115571;-84
2022/01/15 08:58:44;;;;;;;109.93;28.03;;;4.80;99.90;;;;;;7342433;19;112762;-83
2022/01/15 09:01:13;;;;;;;102.60;28.53;;;4.80;99.90;;;;;;7341714;19;112649;-83
2022/01/15 09:03:42;;;;;;;97.17;26.50;;;4.80;99.90;;;;;;7349723;19;112997;-83
2022/01/15 09:06:09;;;;;;;100.20;27.97;;;4.90;99.90;;;;;;7340748;19;113946;-84
2022/01/15 09:08:37;;;;;;;92.90;26.57;;;4.90;99.90;;;;;;7341121;19;110679;-82
2022/01/15 09:11:04;;;;;;;100.57;26.47;;;4.90;99.90;;;;;;7343222;19;111576;-83
2022/01/15 09:13:31;;;;;;;127.57;28.87;;;4.90;99.90;;;;;;7340616;19;115497;-83
2022/01/15 09:15:58;;;;;;;127.87;28.30;;;4.90;99.90;;;;;;7344314;19;112661;-84
2022/01/15 09:18:25;;;;;;;122.87;29.00;;;4.90;99.90;;;;;;7340986;19;112914;-84
2022/01/15 09:20:52;;;;;;;148.40;31.50;;;4.90;99.90;;;;;;7342566;19;113806;-84
2022/01/15 09:23:19;;;;;;;136.10;30.40;;;4.90;99.90;;;;;;7343170;19;114795;-83
2022/01/15 09:25:49;;;;;;;121.97;30.60;;;4.90;99.90;;;;;;7332389;19;114474;-83
2022/01/15 09:31:10;;;;;;;114.73;30.40;;;4.80;99.90;;;;;;7331287;19;112434;-85
2022/01/15 09:33:38;;;;;;;110.17;28.27;;;4.80;99.90;;;;;;7335283;19;115140;-84
2022/01/15 09:36:05;;;;;;;121.23;30.77;;;4.80;99.90;;;;;;7332642;19;112519;-84
2022/01/15 09:38:32;;;;;;;96.90;28.50;;;4.90;99.90;;;;;;7335578;19;115832;-80
2022/01/15 09:40:59;;;;;;;113.67;30.67;;;4.90;99.90;;;;;;7332686;19;115041;-84
2022/01/15 09:43:27;;;;;;;124.23;32.47;;;5.00;99.90;;;;;;7337216;19;115548;-85
2022/01/15 09:45:58;;;;;;;105.20;31.07;;;5.00;99.90;;;;;;7338662;19;112877;-83
2022/01/15 09:48:29;;;;;;;120.80;32.67;;;5.10;99.90;;;;;;7337069;19;112424;-85
2022/01/15 09:50:57;;;;;;;105.97;30.20;;;5.10;99.90;;;;;;7331095;19;114814;-82
2022/01/15 09:53:24;;;;;;;116.13;31.07;;;5.10;99.90;;;;;;7330754;19;115283;-83
2022/01/15 09:55:52;;;;;;;100.80;29.30;;;5.10;99.90;;;;;;7331838;19;112174;-85
2022/01/15 09:58:19;;;;;;;97.17;28.07;;;5.00;99.90;;;;;;7335053;19;113202;-84
2022/01/15 10:00:47;;;;;;;105.50;28.50;;;5.00;99.90;;;;;;7334525;19;112306;-85
2022/01/15 10:03:15;;;;;;;94.77;27.90;;;5.00;99.90;;;;;;7335118;19;114539;-84
2022/01/15 10:05:42;;;;;;;99.57;30.00;;;5.00;99.90;;;;;;7334754;19;112788;-83
2022/01/15 10:08:12;;;;;;;95.33;28.97;;;5.00;99.90;;;;;;7336746;19;111958;-82
2022/01/15 10:10:47;;;;;;;89.60;28.40;;;5.10;99.90;;;;;;7336207;19;112732;-84
2022/01/15 10:13:18;;;;;;;92.00;27.83;;;5.20;99.90;;;;;;7333756;19;111416;-83
2022/01/15 10:15:59;;;;;;;92.57;29.37;;;5.30;99.90;;;;;;7338516;19;110932;-84
2022/01/15 10:18:31;;;;;;;93.73;28.73;;;5.40;99.90;;;;;;7330463;19;112253;-83
2022/01/15 10:21:19;;;;;;;80.93;27.67;;;5.40;99.90;;;;;;7333781;19;112269;-84
2022/01/15 10:23:55;;;;;;;84.25;28.38;;;5.40;99.90;;;;;;7337103;19;112124;-83
2022/01/15 10:26:25;;;;;;;79.67;26.90;;;5.50;99.90;;;;;;7330264;19;112546;-84
2022/01/15 10:28:59;;;;;;;77.97;26.73;;;5.50;99.90;;;;;;7334979;19;112529;-85
2022/01/15 10:31:31;;;;;;;88.17;28.43;;;5.50;99.90;;;;;;7338077;19;112730;-84
2022/01/15 10:34:20;;;;;;;80.20;29.13;;;5.50;99.90;;;;;;7332121;19;115232;-83
2022/01/15 10:36:47;;;;;;;79.83;27.87;;;5.40;99.90;;;;;;7331476;19;112515;-84
2022/01/15 10:39:21;;;;;;;85.67;27.33;;;5.50;99.90;;;;;;7332908;19;112225;-84
2022/01/15 10:41:48;;;;;;;75.93;26.17;;;5.50;99.90;;;;;;7330787;19;114163;-84
2022/01/15 10:44:35;;;;;;;88.23;27.77;;;5.40;99.90;;;;;;7333350;19;112046;-84
2022/01/15 10:47:07;;;;;;;81.90;26.17;;;5.40;99.90;;;;;;7332296;19;112450;-83
2022/01/15 10:49:37;;;;;;;79.17;27.20;;;5.30;99.90;;;;;;7329463;19;114762;-85
2022/01/15 10:52:24;;;;;;;77.23;27.63;;;5.30;99.90;;;;;;7333927;19;112714;-85
2022/01/15 10:55:05;;;;;;;80.80;28.40;;;5.40;99.90;;;;;;7339045;19;115915;-85
2022/01/15 10:57:40;;;;;;;78.97;27.13;;;5.50;99.90;;;;;;7332019;19;111197;-84
2022/01/15 11:00:09;;;;;;;79.73;26.97;;;5.50;99.90;;;;;;7331132;19;111960;-83
2022/01/15 11:02:37;;;;;;;76.27;28.27;;;5.60;99.90;;;;;;7331393;19;112922;-84
2022/01/15 11:05:24;;;;;;;78.17;28.20;;;5.70;99.90;;;;;;7332968;19;112255;-85
2022/01/15 11:07:53;;;;;;;77.32;27.77;;;5.70;99.90;;;;;;7330349;19;112131;-84
2022/01/15 11:10:20;;;;;;;78.83;27.33;;;5.80;99.90;;;;;;7330331;19;114969;-84
2022/01/15 11:12:47;;;;;;;74.90;28.20;;;5.90;99.90;;;;;;7331566;19;111721;-85
2022/01/15 11:15:14;;;;;;;85.97;28.07;;;5.90;99.90;;;;;;7328756;19;112453;-83
2022/01/15 11:17:41;;;;;;;80.20;29.03;;;6.00;99.90;;;;;;7337428;19;114628;-85
2022/01/15 11:20:11;;;;;;;72.00;26.87;;;6.00;99.90;;;;;;7329085;19;115680;-83
2022/01/15 11:22:41;;;;;;;69.03;26.20;;;6.00;99.90;;;;;;7329304;19;112085;-83
2022/01/15 11:25:11;;;;;;;71.00;27.27;;;6.00;99.90;;;;;;7327392;19;114012;-84
2022/01/15 11:27:39;;;;;;;72.30;27.00;;;6.10;99.90;;;;;;7332029;19;112888;-83
2022/01/15 11:30:07;;;;;;;71.10;25.97;;;6.10;99.90;;;;;;7326846;19;112708;-84
2022/01/15 11:32:34;;;;;;;70.93;26.87;;;6.20;99.90;;;;;;7329935;19;112717;-84
2022/01/15 11:35:07;;;;;;;68.37;26.87;;;6.20;99.90;;;;;;7328750;19;114112;-83
2022/01/15 11:37:49;;;;;;;60.93;24.10;;;6.30;99.90;;;;;;7335758;19;115203;-82
2022/01/15 11:40:36;;;;;;;62.67;24.37;;;6.30;99.90;;;;;;7331593;19;111138;-83
2022/01/15 11:43:25;;;;;;;67.30;25.70;;;6.20;99.90;;;;;;7327323;19;112481;-84
2022/01/15 11:45:54;;;;;;;77.47;26.60;;;6.20;99.90;;;;;;7329266;19;112335;-84
2022/01/15 11:48:33;;;;;;;71.43;27.33;;;6.20;99.90;;;;;;7329199;19;112991;-83
2022/01/15 11:51:17;;;;;;;70.20;26.90;;;6.20;99.90;;;;;;7329781;19;111395;-83
2022/01/15 11:53:46;;;;;;;66.40;26.27;;;6.20;99.90;;;;;;7329174;19;112409;-83
2022/01/15 11:56:35;;;;;;;60.80;24.57;;;6.20;99.90;;;;;;7327903;19;112473;-83
2022/01/15 11:59:25;;;;;;;66.03;25.00;;;6.20;99.90;;;;;;7330092;19;111812;-82
2022/01/15 12:02:01;;;;;;;67.73;25.73;;;6.20;99.90;;;;;;7328302;19;113500;-82
2022/01/15 12:04:32;;;;;;;68.30;26.67;;;6.20;99.90;;;;;;7327274;19;112703;-82
2022/01/15 12:07:05;;;;;;;63.97;26.17;;;6.30;99.90;;;;;;7328698;19;112239;-81
2022/01/15 12:09:33;;;;;;;64.33;25.43;;;6.20;99.90;;;;;;7326486;19;112490;-82
2022/01/15 12:12:01;;;;;;;64.07;25.43;;;6.40;99.90;;;;;;7327900;19;112851;-83
2022/01/15 12:14:47;;;;;;;64.10;26.07;;;6.50;99.90;;;;;;7323924;19;115350;-83
2022/01/15 12:17:31;;;;;;;58.77;23.77;;;6.70;99.90;;;;;;7330542;19;113354;-83
2022/01/15 12:20:02;;;;;;;57.27;24.37;;;6.90;99.90;;;;;;7326618;19;112310;-84
2022/01/15 12:22:45;;;;;;;60.10;23.97;;;7.00;99.90;;;;;;7329787;19;110893;-83
2022/01/15 12:25:16;;;;;;;57.35;24.33;;;7.20;99.90;;;;;;7337459;19;115861;-82
2022/01/15 12:27:45;;;;;;;61.08;25.15;;;7.30;99.90;;;;;;7327940;19;112619;-83
2022/01/15 12:30:27;;;;;;;64.78;25.73;;;7.40;99.90;;;;;;7327744;19;112561;-83
2022/01/15 12:32:56;;;;;;;59.92;24.38;;;7.50;99.90;;;;;;7325326;19;112400;-85
2022/01/15 12:35:47;;;;;;;52.80;23.55;;;7.50;99.90;;;;;;7327516;19;113252;-85
2022/01/15 12:38:26;;;;;;;58.17;23.45;;;7.60;99.90;;;;;;7328723;19;113113;-83
2022/01/15 12:40:54;;;;;;;59.20;23.35;;;7.60;99.90;;;;;;7335807;19;114911;-82
2022/01/15 12:43:28;;;;;;;59.17;23.08;;;7.60;99.90;;;;;;7345109;19;112561;-83
2022/01/15 12:46:00;;;;;;;57.92;23.40;;;7.70;99.90;;;;;;7342580;19;115260;-83
2022/01/15 12:48:30;;;;;;;67.38;24.63;;;7.80;99.90;;;;;;7350325;19;112288;-85
2022/01/15 12:51:05;;;;;;;55.08;24.00;;;7.90;99.90;;;;;;7342626;19;115618;-84
2022/01/15 12:53:37;;;;;;;57.22;23.13;;;8.00;99.90;;;;;;7341076;19;112040;-84
2022/01/15 12:56:10;;;;;;;51.45;22.05;;;8.10;99.90;;;;;;7342234;19;113576;-84